sensor_id;sensor_type;location;lat;lon;timestamp;P1;durP1;ratioP1;P2;durP2;ratioP2
6386;SDS011;3226;42.162;24.756;2023-08-07T00:00:01;6.00;;;5.80;;
6386;SDS011;3226;42.162;24.756;2023-08-07T00:02:31;5.67;;;5.47;;
6386;SDS011;3226;42.162;24.756;2023-08-07T00:04:59;5.90;;;5.70;;
6386;SDS011;3226;42.162;24.756;2023-08-07T00:07:27;6.03;;;5.83;;
6386;SDS011;3226;42.162;24.756;2023-08-07T00:09:55;6.30;;;6.07;;
6386;SDS011;3226;42.162;24.756;2023-08-07T00:12:23;7.00;;;6.70;;
6386;SDS011;3226;42.162;24.756;2023-08-07T00:14:51;6.90;;;6.60;;
6386;SDS011;3226;42.162;24.756;2023-08-07T00:17:19;6.47;;;6.17;;
6386;SDS011;3226;42.162;24.756;2023-08-07T00:19:48;6.57;;;6.27;;
6386;SDS011;3226;42.162;24.756;2023-08-07T00:22:16;6.57;;;6.27;;
6386;SDS011;3226;42.162;24.756;2023-08-07T00:24:44;5.57;;;5.37;;
6386;SDS011;3226;42.162;24.756;2023-08-07T00:27:12;7.17;;;6.87;;
6386;SDS011;3226;42.162;24.756;2023-08-07T00:29:40;6.73;;;6.43;;
6386;SDS011;3226;42.162;24.756;2023-08-07T00:32:08;5.83;;;5.63;;
6386;SDS011;3226;42.162;24.756;2023-08-07T00:34:36;6.67;;;6.37;;
6386;SDS011;3226;42.162;24.756;2023-08-07T00:37:06;6.13;;;5.93;;
6386;SDS011;3226;42.162;24.756;2023-08-07T00:39:34;5.87;;;5.67;;
6386;SDS011;3226;42.162;24.756;2023-08-07T00:42:02;6.13;;;5.93;;
6386;SDS011;3226;42.162;24.756;2023-08-07T00:44:30;6.77;;;6.47;;
6386;SDS011;3226;42.162;24.756;2023-08-07T00:46:58;7.03;;;6.73;;
6386;SDS011;3226;42.162;24.756;2023-08-07T00:49:26;6.53;;;6.23;;
6386;SDS011;3226;42.162;24.756;2023-08-07T00:51:54;6.60;;;6.30;;
6386;SDS011;3226;42.162;24.756;2023-08-07T00:54:24;10.00;;;9.60;;
6386;SDS011;3226;42.162;24.756;2023-08-07T00:56:53;6.37;;;6.07;;
6386;SDS011;3226;42.162;24.756;2023-08-07T00:59:21;7.10;;;6.80;;
6386;SDS011;3226;42.162;24.756;2023-08-07T01:01:49;6.13;;;5.93;;
6386;SDS011;3226;42.162;24.756;2023-08-07T01:04:19;7.30;;;7.00;;
6386;SDS011;3226;42.162;24.756;2023-08-07T01:06:47;6.40;;;6.10;;
6386;SDS011;3226;42.162;24.756;2023-08-07T01:09:15;6.53;;;6.23;;
6386;SDS011;3226;42.162;24.756;2023-08-07T01:11:45;6.43;;;6.13;;
6386;SDS011;3226;42.162;24.756;2023-08-07T01:14:19;6.00;;;5.80;;
6386;SDS011;3226;42.162;24.756;2023-08-07T01:16:57;5.70;;;5.50;;
6386;SDS011;3226;42.162;24.756;2023-08-07T01:19:30;6.13;;;5.93;;
6386;SDS011;3226;42.162;24.756;2023-08-07T01:22:05;5.67;;;5.47;;
6386;SDS011;3226;42.162;24.756;2023-08-07T01:24:34;5.63;;;5.43;;
6386;SDS011;3226;42.162;24.756;2023-08-07T01:27:11;6.50;;;6.20;;
6386;SDS011;3226;42.162;24.756;2023-08-07T01:29:49;6.53;;;6.23;;
6386;SDS011;3226;42.162;24.756;2023-08-07T01:32:24;6.97;;;6.67;;
6386;SDS011;3226;42.162;24.756;2023-08-07T01:34:56;6.07;;;5.87;;
6386;SDS011;3226;42.162;24.756;2023-08-07T01:37:27;6.30;;;6.00;;
6386;SDS011;3226;42.162;24.756;2023-08-07T01:39:58;6.67;;;6.37;;
6386;SDS011;3226;42.162;24.756;2023-08-07T01:42:30;6.67;;;6.37;;
6386;SDS011;3226;42.162;24.756;2023-08-07T01:44:59;7.07;;;6.77;;
6386;SDS011;3226;42.162;24.756;2023-08-07T01:47:28;7.13;;;6.83;;
6386;SDS011;3226;42.162;24.756;2023-08-07T01:49:56;5.83;;;5.63;;
6386;SDS011;3226;42.162;24.756;2023-08-07T01:52:24;6.00;;;5.80;;
6386;SDS011;3226;42.162;24.756;2023-08-07T01:54:53;6.57;;;6.27;;
6386;SDS011;3226;42.162;24.756;2023-08-07T01:57:21;6.60;;;6.30;;
6386;SDS011;3226;42.162;24.756;2023-08-07T01:59:49;7.37;;;7.07;;
6386;SDS011;3226;42.162;24.756;2023-08-07T02:02:17;7.27;;;6.97;;
6386;SDS011;3226;42.162;24.756;2023-08-07T02:04:45;6.87;;;6.57;;
6386;SDS011;3226;42.162;24.756;2023-08-07T02:07:14;7.20;;;6.90;;
6386;SDS011;3226;42.162;24.756;2023-08-07T02:09:42;6.27;;;6.03;;
6386;SDS011;3226;42.162;24.756;2023-08-07T02:12:11;6.70;;;6.40;;
6386;SDS011;3226;42.162;24.756;2023-08-07T02:14:39;7.33;;;7.03;;
6386;SDS011;3226;42.162;24.756;2023-08-07T02:17:07;7.07;;;6.77;;
6386;SDS011;3226;42.162;24.756;2023-08-07T02:19:35;7.13;;;6.83;;
6386;SDS011;3226;42.162;24.756;2023-08-07T02:22:03;7.00;;;6.70;;
6386;SDS011;3226;42.162;24.756;2023-08-07T02:24:31;7.83;;;7.53;;
6386;SDS011;3226;42.162;24.756;2023-08-07T02:26:59;8.03;;;7.73;;
6386;SDS011;3226;42.162;24.756;2023-08-07T02:29:28;7.43;;;7.13;;
6386;SDS011;3226;42.162;24.756;2023-08-07T02:32:01;6.27;;;6.00;;
6386;SDS011;3226;42.162;24.756;2023-08-07T02:34:30;6.17;;;5.97;;
6386;SDS011;3226;42.162;24.756;2023-08-07T02:36:58;6.00;;;5.80;;
6386;SDS011;3226;42.162;24.756;2023-08-07T02:39:26;7.00;;;6.70;;
6386;SDS011;3226;42.162;24.756;2023-08-07T02:41:54;7.10;;;6.80;;
6386;SDS011;3226;42.162;24.756;2023-08-07T02:44:22;7.60;;;7.30;;
6386;SDS011;3226;42.162;24.756;2023-08-07T02:46:52;7.07;;;6.77;;
6386;SDS011;3226;42.162;24.756;2023-08-07T02:49:20;6.97;;;6.67;;
6386;SDS011;3226;42.162;24.756;2023-08-07T02:51:48;6.20;;;6.00;;
6386;SDS011;3226;42.162;24.756;2023-08-07T02:54:16;7.90;;;7.60;;
6386;SDS011;3226;42.162;24.756;2023-08-07T02:56:44;7.00;;;6.70;;
6386;SDS011;3226;42.162;24.756;2023-08-07T02:59:12;7.10;;;6.80;;
6386;SDS011;3226;42.162;24.756;2023-08-07T03:01:40;6.43;;;6.13;;
6386;SDS011;3226;42.162;24.756;2023-08-07T03:04:10;6.40;;;6.13;;
6386;SDS011;3226;42.162;24.756;2023-08-07T03:06:38;6.93;;;6.63;;
6386;SDS011;3226;42.162;24.756;2023-08-07T03:09:05;7.13;;;6.83;;
6386;SDS011;3226;42.162;24.756;2023-08-07T03:11:34;7.43;;;7.13;;
6386;SDS011;3226;42.162;24.756;2023-08-07T03:14:02;6.87;;;6.57;;
6386;SDS011;3226;42.162;24.756;2023-08-07T03:16:30;6.37;;;6.10;;
6386;SDS011;3226;42.162;24.756;2023-08-07T03:18:58;6.17;;;5.93;;
6386;SDS011;3226;42.162;24.756;2023-08-07T03:21:27;7.07;;;6.77;;
6386;SDS011;3226;42.162;24.756;2023-08-07T03:23:55;6.87;;;6.57;;
6386;SDS011;3226;42.162;24.756;2023-08-07T03:26:23;6.27;;;6.03;;
6386;SDS011;3226;42.162;24.756;2023-08-07T03:28:51;7.23;;;6.93;;
6386;SDS011;3226;42.162;24.756;2023-08-07T03:31:19;7.20;;;6.90;;
6386;SDS011;3226;42.162;24.756;2023-08-07T03:33:47;7.47;;;7.17;;
6386;SDS011;3226;42.162;24.756;2023-08-07T03:36:15;7.53;;;7.23;;
6386;SDS011;3226;42.162;24.756;2023-08-07T03:38:45;7.53;;;7.23;;
6386;SDS011;3226;42.162;24.756;2023-08-07T03:41:13;7.93;;;7.63;;
6386;SDS011;3226;42.162;24.756;2023-08-07T03:43:41;7.23;;;6.93;;
6386;SDS011;3226;42.162;24.756;2023-08-07T03:46:09;8.20;;;7.90;;
6386;SDS011;3226;42.162;24.756;2023-08-07T03:48:37;6.90;;;6.60;;
6386;SDS011;3226;42.162;24.756;2023-08-07T03:51:06;6.73;;;6.43;;
6386;SDS011;3226;42.162;24.756;2023-08-07T03:53:35;6.67;;;6.37;;
6386;SDS011;3226;42.162;24.756;2023-08-07T03:56:04;5.73;;;5.53;;
6386;SDS011;3226;42.162;24.756;2023-08-07T03:58:32;6.83;;;6.53;;
6386;SDS011;3226;42.162;24.756;2023-08-07T04:01:00;7.50;;;7.20;;
6386;SDS011;3226;42.162;24.756;2023-08-07T04:03:28;7.47;;;7.17;;
6386;SDS011;3226;42.162;24.756;2023-08-07T04:05:56;7.47;;;7.17;;
6386;SDS011;3226;42.162;24.756;2023-08-07T04:08:26;7.67;;;7.37;;
6386;SDS011;3226;42.162;24.756;2023-08-07T04:10:58;8.93;;;8.53;;
6386;SDS011;3226;42.162;24.756;2023-08-07T04:13:28;8.80;;;8.40;;
6386;SDS011;3226;42.162;24.756;2023-08-07T04:15:57;9.47;;;9.07;;
6386;SDS011;3226;42.162;24.756;2023-08-07T04:18:27;9.17;;;8.77;;
6386;SDS011;3226;42.162;24.756;2023-08-07T04:20:55;9.47;;;9.07;;
6386;SDS011;3226;42.162;24.756;2023-08-07T04:23:24;9.97;;;9.57;;
6386;SDS011;3226;42.162;24.756;2023-08-07T04:25:52;10.47;;;9.97;;
6386;SDS011;3226;42.162;24.756;2023-08-07T04:28:21;8.20;;;7.87;;
6386;SDS011;3226;42.162;24.756;2023-08-07T04:30:51;8.63;;;8.23;;
6386;SDS011;3226;42.162;24.756;2023-08-07T04:33:20;7.30;;;7.00;;
6386;SDS011;3226;42.162;24.756;2023-08-07T04:35:48;7.80;;;7.50;;
6386;SDS011;3226;42.162;24.756;2023-08-07T04:38:16;7.63;;;7.33;;
6386;SDS011;3226;42.162;24.756;2023-08-07T04:40:44;6.87;;;6.57;;
6386;SDS011;3226;42.162;24.756;2023-08-07T04:43:13;6.30;;;6.00;;
6386;SDS011;3226;42.162;24.756;2023-08-07T04:45:41;7.03;;;6.73;;
6386;SDS011;3226;42.162;24.756;2023-08-07T04:48:13;7.17;;;6.87;;
6386;SDS011;3226;42.162;24.756;2023-08-07T04:50:41;7.60;;;7.30;;
6386;SDS011;3226;42.162;24.756;2023-08-07T04:53:09;5.87;;;5.67;;
6386;SDS011;3226;42.162;24.756;2023-08-07T04:55:38;7.07;;;6.77;;
6386;SDS011;3226;42.162;24.756;2023-08-07T04:58:06;6.50;;;6.20;;
6386;SDS011;3226;42.162;24.756;2023-08-07T05:00:34;6.27;;;6.03;;
6386;SDS011;3226;42.162;24.756;2023-08-07T05:03:02;6.80;;;6.50;;
6386;SDS011;3226;42.162;24.756;2023-08-07T05:05:32;6.37;;;6.07;;
6386;SDS011;3226;42.162;24.756;2023-08-07T05:08:00;7.23;;;6.93;;
6386;SDS011;3226;42.162;24.756;2023-08-07T05:10:28;8.33;;;8.00;;
6386;SDS011;3226;42.162;24.756;2023-08-07T05:12:56;8.77;;;8.37;;
6386;SDS011;3226;42.162;24.756;2023-08-07T05:15:24;8.63;;;8.23;;
6386;SDS011;3226;42.162;24.756;2023-08-07T05:17:54;8.80;;;8.40;;
6386;SDS011;3226;42.162;24.756;2023-08-07T05:20:23;9.20;;;8.80;;
6386;SDS011;3226;42.162;24.756;2023-08-07T05:22:52;8.23;;;7.93;;
6386;SDS011;3226;42.162;24.756;2023-08-07T05:25:20;6.37;;;6.07;;
6386;SDS011;3226;42.162;24.756;2023-08-07T05:27:48;7.83;;;7.53;;
6386;SDS011;3226;42.162;24.756;2023-08-07T05:30:16;7.03;;;6.73;;
6386;SDS011;3226;42.162;24.756;2023-08-07T05:32:44;7.17;;;6.87;;
6386;SDS011;3226;42.162;24.756;2023-08-07T05:35:12;6.33;;;6.03;;
6386;SDS011;3226;42.162;24.756;2023-08-07T05:37:40;6.87;;;6.57;;
6386;SDS011;3226;42.162;24.756;2023-08-07T05:40:10;6.50;;;6.20;;
6386;SDS011;3226;42.162;24.756;2023-08-07T05:42:39;6.70;;;6.40;;
6386;SDS011;3226;42.162;24.756;2023-08-07T05:45:08;6.40;;;6.10;;
6386;SDS011;3226;42.162;24.756;2023-08-07T05:47:37;5.73;;;5.53;;
6386;SDS011;3226;42.162;24.756;2023-08-07T05:50:06;6.03;;;5.83;;
6386;SDS011;3226;42.162;24.756;2023-08-07T05:52:34;7.47;;;7.17;;
6386;SDS011;3226;42.162;24.756;2023-08-07T05:55:02;6.17;;;5.90;;
6386;SDS011;3226;42.162;24.756;2023-08-07T05:57:34;5.70;;;5.50;;
6386;SDS011;3226;42.162;24.756;2023-08-07T06:00:03;5.73;;;5.53;;
6386;SDS011;3226;42.162;24.756;2023-08-07T06:02:31;6.67;;;6.37;;
6386;SDS011;3226;42.162;24.756;2023-08-07T06:05:00;6.80;;;6.50;;
6386;SDS011;3226;42.162;24.756;2023-08-07T06:07:28;6.00;;;5.80;;
6386;SDS011;3226;42.162;24.756;2023-08-07T06:09:56;6.60;;;6.30;;
6386;SDS011;3226;42.162;24.756;2023-08-07T06:12:24;7.43;;;7.13;;
6386;SDS011;3226;42.162;24.756;2023-08-07T06:14:53;6.37;;;6.10;;
6386;SDS011;3226;42.162;24.756;2023-08-07T06:17:21;6.00;;;5.80;;
6386;SDS011;3226;42.162;24.756;2023-08-07T06:19:49;7.13;;;6.83;;
6386;SDS011;3226;42.162;24.756;2023-08-07T06:22:17;7.03;;;6.73;;
6386;SDS011;3226;42.162;24.756;2023-08-07T06:24:45;6.73;;;6.43;;
6386;SDS011;3226;42.162;24.756;2023-08-07T06:27:13;5.97;;;5.77;;
6386;SDS011;3226;42.162;24.756;2023-08-07T06:29:41;6.27;;;6.00;;
6386;SDS011;3226;42.162;24.756;2023-08-07T06:32:11;6.23;;;6.03;;
6386;SDS011;3226;42.162;24.756;2023-08-07T06:34:39;6.77;;;6.47;;
6386;SDS011;3226;42.162;24.756;2023-08-07T06:37:07;6.83;;;6.53;;
6386;SDS011;3226;42.162;24.756;2023-08-07T06:39:35;6.30;;;6.00;;
6386;SDS011;3226;42.162;24.756;2023-08-07T06:42:03;6.07;;;5.87;;
6386;SDS011;3226;42.162;24.756;2023-08-07T06:44:31;7.23;;;6.93;;
6386;SDS011;3226;42.162;24.756;2023-08-07T06:46:59;6.40;;;6.13;;
6386;SDS011;3226;42.162;24.756;2023-08-07T06:49:29;7.90;;;7.50;;
6386;SDS011;3226;42.162;24.756;2023-08-07T06:51:58;6.70;;;6.40;;
6386;SDS011;3226;42.162;24.756;2023-08-07T06:54:26;5.97;;;5.77;;
6386;SDS011;3226;42.162;24.756;2023-08-07T06:56:54;6.43;;;6.13;;
6386;SDS011;3226;42.162;24.756;2023-08-07T06:59:22;6.77;;;6.47;;
6386;SDS011;3226;42.162;24.756;2023-08-07T07:01:50;6.17;;;5.87;;
6386;SDS011;3226;42.162;24.756;2023-08-07T07:04:18;6.53;;;6.23;;
6386;SDS011;3226;42.162;24.756;2023-08-07T07:06:48;6.93;;;6.63;;
6386;SDS011;3226;42.162;24.756;2023-08-07T07:09:16;6.80;;;6.50;;
6386;SDS011;3226;42.162;24.756;2023-08-07T07:11:43;7.13;;;6.83;;
6386;SDS011;3226;42.162;24.756;2023-08-07T07:14:12;6.27;;;6.07;;
6386;SDS011;3226;42.162;24.756;2023-08-07T07:16:40;6.00;;;5.80;;
6386;SDS011;3226;42.162;24.756;2023-08-07T07:19:08;6.50;;;6.20;;
6386;SDS011;3226;42.162;24.756;2023-08-07T07:21:36;6.67;;;6.37;;
6386;SDS011;3226;42.162;24.756;2023-08-07T07:24:06;6.50;;;6.20;;
6386;SDS011;3226;42.162;24.756;2023-08-07T07:26:33;7.13;;;6.83;;
6386;SDS011;3226;42.162;24.756;2023-08-07T07:29:02;6.57;;;6.27;;
6386;SDS011;3226;42.162;24.756;2023-08-07T07:31:30;6.80;;;6.50;;
6386;SDS011;3226;42.162;24.756;2023-08-07T07:33:58;6.53;;;6.23;;
6386;SDS011;3226;42.162;24.756;2023-08-07T07:36:26;6.27;;;5.97;;
6386;SDS011;3226;42.162;24.756;2023-08-07T07:38:54;6.87;;;6.57;;
6386;SDS011;3226;42.162;24.756;2023-08-07T07:41:23;7.43;;;7.13;;
6386;SDS011;3226;42.162;24.756;2023-08-07T07:43:51;8.27;;;7.87;;
6386;SDS011;3226;42.162;24.756;2023-08-07T07:46:22;7.40;;;7.10;;
6386;SDS011;3226;42.162;24.756;2023-08-07T07:48:51;6.83;;;6.53;;
6386;SDS011;3226;42.162;24.756;2023-08-07T07:51:19;7.13;;;6.83;;
6386;SDS011;3226;42.162;24.756;2023-08-07T07:53:47;8.27;;;7.87;;
6386;SDS011;3226;42.162;24.756;2023-08-07T07:56:36;9.07;;;8.67;;
6386;SDS011;3226;42.162;24.756;2023-08-07T07:59:04;8.33;;;7.97;;
6386;SDS011;3226;42.162;24.756;2023-08-07T08:01:34;11.03;;;10.53;;
6386;SDS011;3226;42.162;24.756;2023-08-07T08:04:03;12.90;;;12.30;;
6386;SDS011;3226;42.162;24.756;2023-08-07T08:06:32;9.10;;;8.70;;
6386;SDS011;3226;42.162;24.756;2023-08-07T08:09:00;7.97;;;7.67;;
6386;SDS011;3226;42.162;24.756;2023-08-07T08:11:30;7.20;;;6.90;;
6386;SDS011;3226;42.162;24.756;2023-08-07T08:14:01;8.27;;;7.97;;
6386;SDS011;3226;42.162;24.756;2023-08-07T08:16:28;9.07;;;8.67;;
6386;SDS011;3226;42.162;24.756;2023-08-07T08:18:56;7.70;;;7.40;;
6386;SDS011;3226;42.162;24.756;2023-08-07T08:21:24;7.83;;;7.53;;
6386;SDS011;3226;42.162;24.756;2023-08-07T08:23:52;8.33;;;7.97;;
6386;SDS011;3226;42.162;24.756;2023-08-07T08:26:20;7.63;;;7.33;;
6386;SDS011;3226;42.162;24.756;2023-08-07T08:28:48;6.70;;;6.40;;
6386;SDS011;3226;42.162;24.756;2023-08-07T08:31:17;6.80;;;6.50;;
6386;SDS011;3226;42.162;24.756;2023-08-07T08:33:48;6.77;;;6.47;;
6386;SDS011;3226;42.162;24.756;2023-08-07T08:36:16;6.90;;;6.60;;
6386;SDS011;3226;42.162;24.756;2023-08-07T08:38:44;7.17;;;6.87;;
6386;SDS011;3226;42.162;24.756;2023-08-07T08:41:15;7.67;;;7.37;;
6386;SDS011;3226;42.162;24.756;2023-08-07T08:43:45;7.70;;;7.40;;
6386;SDS011;3226;42.162;24.756;2023-08-07T08:46:14;7.53;;;7.23;;
6386;SDS011;3226;42.162;24.756;2023-08-07T08:48:44;8.70;;;8.30;;
6386;SDS011;3226;42.162;24.756;2023-08-07T08:51:17;7.27;;;6.97;;
6386;SDS011;3226;42.162;24.756;2023-08-07T08:53:48;6.67;;;6.37;;
6386;SDS011;3226;42.162;24.756;2023-08-07T08:56:17;7.17;;;6.87;;
6386;SDS011;3226;42.162;24.756;2023-08-07T08:58:45;6.17;;;5.93;;
6386;SDS011;3226;42.162;24.756;2023-08-07T09:01:14;7.33;;;7.03;;
6386;SDS011;3226;42.162;24.756;2023-08-07T09:03:45;6.40;;;6.10;;
6386;SDS011;3226;42.162;24.756;2023-08-07T09:06:14;6.87;;;6.57;;
6386;SDS011;3226;42.162;24.756;2023-08-07T09:08:43;7.27;;;6.97;;
6386;SDS011;3226;42.162;24.756;2023-08-07T09:11:11;8.03;;;7.73;;
6386;SDS011;3226;42.162;24.756;2023-08-07T09:13:41;6.80;;;6.50;;
6386;SDS011;3226;42.162;24.756;2023-08-07T09:16:12;7.53;;;7.23;;
6386;SDS011;3226;42.162;24.756;2023-08-07T09:18:41;7.33;;;7.03;;
6386;SDS011;3226;42.162;24.756;2023-08-07T09:21:11;7.20;;;6.90;;
6386;SDS011;3226;42.162;24.756;2023-08-07T09:23:42;6.73;;;6.43;;
6386;SDS011;3226;42.162;24.756;2023-08-07T09:26:10;6.43;;;6.13;;
6386;SDS011;3226;42.162;24.756;2023-08-07T09:28:38;6.40;;;6.13;;
6386;SDS011;3226;42.162;24.756;2023-08-07T09:31:06;7.10;;;6.80;;
6386;SDS011;3226;42.162;24.756;2023-08-07T09:33:35;6.73;;;6.43;;
6386;SDS011;3226;42.162;24.756;2023-08-07T09:36:06;7.07;;;6.77;;
6386;SDS011;3226;42.162;24.756;2023-08-07T09:38:35;7.60;;;7.30;;
6386;SDS011;3226;42.162;24.756;2023-08-07T09:41:03;6.90;;;6.60;;
6386;SDS011;3226;42.162;24.756;2023-08-07T09:43:33;6.93;;;6.63;;
6386;SDS011;3226;42.162;24.756;2023-08-07T09:46:02;7.40;;;7.10;;
6386;SDS011;3226;42.162;24.756;2023-08-07T09:48:31;8.63;;;8.23;;
6386;SDS011;3226;42.162;24.756;2023-08-07T09:51:00;7.97;;;7.67;;
6386;SDS011;3226;42.162;24.756;2023-08-07T09:53:30;9.07;;;8.67;;
6386;SDS011;3226;42.162;24.756;2023-08-07T09:56:00;8.40;;;8.03;;
6386;SDS011;3226;42.162;24.756;2023-08-07T09:58:28;7.13;;;6.83;;
6386;SDS011;3226;42.162;24.756;2023-08-07T10:00:58;7.00;;;6.70;;
6386;SDS011;3226;42.162;24.756;2023-08-07T10:03:27;7.83;;;7.53;;
6386;SDS011;3226;42.162;24.756;2023-08-07T10:05:55;6.77;;;6.47;;
6386;SDS011;3226;42.162;24.756;2023-08-07T10:08:23;7.70;;;7.40;;
6386;SDS011;3226;42.162;24.756;2023-08-07T10:10:52;8.67;;;8.27;;
6386;SDS011;3226;42.162;24.756;2023-08-07T10:13:22;7.80;;;7.50;;
6386;SDS011;3226;42.162;24.756;2023-08-07T10:16:05;7.37;;;7.07;;
6386;SDS011;3226;42.162;24.756;2023-08-07T10:18:33;7.30;;;7.00;;
6386;SDS011;3226;42.162;24.756;2023-08-07T10:21:04;7.57;;;7.27;;
6386;SDS011;3226;42.162;24.756;2023-08-07T10:23:34;8.47;;;8.07;;
6386;SDS011;3226;42.162;24.756;2023-08-07T10:26:03;8.37;;;8.03;;
6386;SDS011;3226;42.162;24.756;2023-08-07T10:28:35;8.00;;;7.70;;
6386;SDS011;3226;42.162;24.756;2023-08-07T10:31:06;7.40;;;7.10;;
6386;SDS011;3226;42.162;24.756;2023-08-07T10:33:34;7.80;;;7.50;;
6386;SDS011;3226;42.162;24.756;2023-08-07T10:36:08;7.17;;;6.87;;
6386;SDS011;3226;42.162;24.756;2023-08-07T10:38:37;7.63;;;7.33;;
6386;SDS011;3226;42.162;24.756;2023-08-07T10:41:06;7.47;;;7.17;;
6386;SDS011;3226;42.162;24.756;2023-08-07T10:43:37;7.30;;;7.00;;
6386;SDS011;3226;42.162;24.756;2023-08-07T10:46:08;8.00;;;7.70;;
6386;SDS011;3226;42.162;24.756;2023-08-07T10:48:38;7.33;;;7.03;;
6386;SDS011;3226;42.162;24.756;2023-08-07T10:51:07;7.50;;;7.20;;
6386;SDS011;3226;42.162;24.756;2023-08-07T10:53:35;7.60;;;7.30;;
6386;SDS011;3226;42.162;24.756;2023-08-07T10:56:07;6.60;;;6.30;;
6386;SDS011;3226;42.162;24.756;2023-08-07T10:58:38;7.50;;;7.20;;
6386;SDS011;3226;42.162;24.756;2023-08-07T11:01:21;7.10;;;6.80;;
6386;SDS011;3226;42.162;24.756;2023-08-07T11:03:50;7.40;;;7.10;;
6386;SDS011;3226;42.162;24.756;2023-08-07T11:06:22;7.97;;;7.67;;
6386;SDS011;3226;42.162;24.756;2023-08-07T11:08:52;7.03;;;6.73;;
6386;SDS011;3226;42.162;24.756;2023-08-07T11:11:21;7.87;;;7.57;;
6386;SDS011;3226;42.162;24.756;2023-08-07T11:13:50;7.97;;;7.67;;
6386;SDS011;3226;42.162;24.756;2023-08-07T11:16:19;7.70;;;7.40;;
6386;SDS011;3226;42.162;24.756;2023-08-07T11:18:48;7.33;;;7.03;;
6386;SDS011;3226;42.162;24.756;2023-08-07T11:21:16;6.43;;;6.13;;
6386;SDS011;3226;42.162;24.756;2023-08-07T11:23:46;6.87;;;6.57;;
6386;SDS011;3226;42.162;24.756;2023-08-07T11:26:14;7.47;;;7.17;;
6386;SDS011;3226;42.162;24.756;2023-08-07T11:28:43;7.00;;;6.70;;
6386;SDS011;3226;42.162;24.756;2023-08-07T11:31:13;7.27;;;6.97;;
6386;SDS011;3226;42.162;24.756;2023-08-07T11:33:41;6.27;;;6.03;;
6386;SDS011;3226;42.162;24.756;2023-08-07T11:36:10;6.97;;;6.67;;
6386;SDS011;3226;42.162;24.756;2023-08-07T11:38:39;6.90;;;6.60;;
6386;SDS011;3226;42.162;24.756;2023-08-07T11:41:10;7.20;;;6.90;;
6386;SDS011;3226;42.162;24.756;2023-08-07T11:43:40;7.60;;;7.30;;
6386;SDS011;3226;42.162;24.756;2023-08-07T11:46:10;7.13;;;6.83;;
6386;SDS011;3226;42.162;24.756;2023-08-07T11:48:41;7.83;;;7.53;;
6386;SDS011;3226;42.162;24.756;2023-08-07T11:51:10;7.93;;;7.63;;
6386;SDS011;3226;42.162;24.756;2023-08-07T11:53:39;7.00;;;6.70;;
6386;SDS011;3226;42.162;24.756;2023-08-07T11:56:08;7.43;;;7.13;;
6386;SDS011;3226;42.162;24.756;2023-08-07T11:58:37;7.03;;;6.73;;
6386;SDS011;3226;42.162;24.756;2023-08-07T12:01:09;7.57;;;7.27;;
6386;SDS011;3226;42.162;24.756;2023-08-07T12:03:38;7.17;;;6.87;;
6386;SDS011;3226;42.162;24.756;2023-08-07T12:06:10;6.90;;;6.60;;
6386;SDS011;3226;42.162;24.756;2023-08-07T12:08:39;7.60;;;7.30;;
6386;SDS011;3226;42.162;24.756;2023-08-07T12:11:08;7.33;;;7.03;;
6386;SDS011;3226;42.162;24.756;2023-08-07T12:13:38;7.10;;;6.80;;
6386;SDS011;3226;42.162;24.756;2023-08-07T12:16:07;7.00;;;6.70;;
6386;SDS011;3226;42.162;24.756;2023-08-07T12:18:36;7.43;;;7.13;;
6386;SDS011;3226;42.162;24.756;2023-08-07T12:21:06;7.23;;;6.93;;
6386;SDS011;3226;42.162;24.756;2023-08-07T12:23:36;6.90;;;6.60;;
6386;SDS011;3226;42.162;24.756;2023-08-07T12:26:04;7.37;;;7.07;;
6386;SDS011;3226;42.162;24.756;2023-08-07T12:28:33;7.10;;;6.80;;
6386;SDS011;3226;42.162;24.756;2023-08-07T12:31:02;7.23;;;6.93;;
6386;SDS011;3226;42.162;24.756;2023-08-07T12:33:30;8.50;;;8.10;;
6386;SDS011;3226;42.162;24.756;2023-08-07T12:35:58;7.93;;;7.63;;
6386;SDS011;3226;42.162;24.756;2023-08-07T12:38:27;7.67;;;7.37;;
6386;SDS011;3226;42.162;24.756;2023-08-07T12:40:57;8.33;;;7.97;;
6386;SDS011;3226;42.162;24.756;2023-08-07T12:43:25;7.53;;;7.23;;
6386;SDS011;3226;42.162;24.756;2023-08-07T12:45:53;7.17;;;6.87;;
6386;SDS011;3226;42.162;24.756;2023-08-07T12:48:41;7.87;;;7.57;;
6386;SDS011;3226;42.162;24.756;2023-08-07T12:51:09;7.30;;;7.00;;
6386;SDS011;3226;42.162;24.756;2023-08-07T12:53:37;7.03;;;6.73;;
6386;SDS011;3226;42.162;24.756;2023-08-07T12:56:06;6.93;;;6.63;;
6386;SDS011;3226;42.162;24.756;2023-08-07T12:58:34;7.23;;;6.93;;
6386;SDS011;3226;42.162;24.756;2023-08-07T13:01:04;6.90;;;6.60;;
6386;SDS011;3226;42.162;24.756;2023-08-07T13:03:32;6.67;;;6.37;;
6386;SDS011;3226;42.162;24.756;2023-08-07T13:06:00;6.87;;;6.57;;
6386;SDS011;3226;42.162;24.756;2023-08-07T13:08:32;7.30;;;7.00;;
6386;SDS011;3226;42.162;24.756;2023-08-07T13:11:01;7.83;;;7.53;;
6386;SDS011;3226;42.162;24.756;2023-08-07T13:13:30;7.30;;;7.00;;
6386;SDS011;3226;42.162;24.756;2023-08-07T13:15:58;7.80;;;7.50;;
6386;SDS011;3226;42.162;24.756;2023-08-07T13:18:26;7.73;;;7.43;;
6386;SDS011;3226;42.162;24.756;2023-08-07T13:20:54;7.23;;;6.93;;
6386;SDS011;3226;42.162;24.756;2023-08-07T13:23:23;7.90;;;7.60;;
6386;SDS011;3226;42.162;24.756;2023-08-07T13:25:51;7.37;;;7.07;;
6386;SDS011;3226;42.162;24.756;2023-08-07T13:28:19;7.00;;;6.70;;
6386;SDS011;3226;42.162;24.756;2023-08-07T13:30:48;7.23;;;6.93;;
6386;SDS011;3226;42.162;24.756;2023-08-07T13:33:16;6.90;;;6.60;;
6386;SDS011;3226;42.162;24.756;2023-08-07T13:35:46;7.00;;;6.70;;
6386;SDS011;3226;42.162;24.756;2023-08-07T13:38:14;7.90;;;7.60;;
6386;SDS011;3226;42.162;24.756;2023-08-07T13:40:45;7.47;;;7.17;;
6386;SDS011;3226;42.162;24.756;2023-08-07T13:43:13;8.07;;;7.70;;
6386;SDS011;3226;42.162;24.756;2023-08-07T13:45:41;7.53;;;7.23;;
6386;SDS011;3226;42.162;24.756;2023-08-07T13:48:10;7.60;;;7.30;;
6386;SDS011;3226;42.162;24.756;2023-08-07T13:50:38;8.63;;;8.23;;
6386;SDS011;3226;42.162;24.756;2023-08-07T13:53:07;9.00;;;8.60;;
6386;SDS011;3226;42.162;24.756;2023-08-07T13:55:41;7.90;;;7.60;;
6386;SDS011;3226;42.162;24.756;2023-08-07T13:58:10;7.57;;;7.27;;
6386;SDS011;3226;42.162;24.756;2023-08-07T14:00:38;8.10;;;7.80;;
6386;SDS011;3226;42.162;24.756;2023-08-07T14:03:07;7.60;;;7.30;;
6386;SDS011;3226;42.162;24.756;2023-08-07T14:05:39;7.63;;;7.33;;
6386;SDS011;3226;42.162;24.756;2023-08-07T14:08:07;8.00;;;7.60;;
6386;SDS011;3226;42.162;24.756;2023-08-07T14:10:37;8.43;;;8.07;;
6386;SDS011;3226;42.162;24.756;2023-08-07T14:13:08;7.93;;;7.63;;
6386;SDS011;3226;42.162;24.756;2023-08-07T14:15:38;7.40;;;7.10;;
6386;SDS011;3226;42.162;24.756;2023-08-07T14:18:06;8.07;;;7.77;;
6386;SDS011;3226;42.162;24.756;2023-08-07T14:20:35;7.60;;;7.30;;
6386;SDS011;3226;42.162;24.756;2023-08-07T14:23:23;7.83;;;7.53;;
6386;SDS011;3226;42.162;24.756;2023-08-07T14:25:51;7.20;;;6.90;;
6386;SDS011;3226;42.162;24.756;2023-08-07T14:28:19;7.00;;;6.70;;
6386;SDS011;3226;42.162;24.756;2023-08-07T14:30:47;7.60;;;7.30;;
6386;SDS011;3226;42.162;24.756;2023-08-07T14:33:16;7.60;;;7.30;;
6386;SDS011;3226;42.162;24.756;2023-08-07T14:35:45;7.83;;;7.50;;
6386;SDS011;3226;42.162;24.756;2023-08-07T14:38:13;7.50;;;7.20;;
6386;SDS011;3226;42.162;24.756;2023-08-07T14:40:42;7.63;;;7.33;;
6386;SDS011;3226;42.162;24.756;2023-08-07T14:43:10;7.53;;;7.23;;
6386;SDS011;3226;42.162;24.756;2023-08-07T14:45:38;7.17;;;6.87;;
6386;SDS011;3226;42.162;24.756;2023-08-07T14:48:06;7.13;;;6.83;;
6386;SDS011;3226;42.162;24.756;2023-08-07T14:50:34;7.33;;;7.03;;
6386;SDS011;3226;42.162;24.756;2023-08-07T14:53:03;7.70;;;7.40;;
6386;SDS011;3226;42.162;24.756;2023-08-07T14:55:31;7.10;;;6.80;;
6386;SDS011;3226;42.162;24.756;2023-08-07T14:57:59;7.40;;;7.10;;
6386;SDS011;3226;42.162;24.756;2023-08-07T15:00:28;8.03;;;7.67;;
6386;SDS011;3226;42.162;24.756;2023-08-07T15:02:56;7.67;;;7.37;;
6386;SDS011;3226;42.162;24.756;2023-08-07T15:05:25;7.20;;;6.90;;
6386;SDS011;3226;42.162;24.756;2023-08-07T15:07:53;7.70;;;7.40;;
6386;SDS011;3226;42.162;24.756;2023-08-07T15:10:22;7.57;;;7.27;;